createdAt,value
2022-08-17T00:01:22.530Z,2.72
2022-08-17T00:05:31.312Z,2.75
2022-08-17T00:09:33.465Z,2.92
2022-08-17T00:13:39.140Z,2.60
2022-08-17T00:17:42.708Z,3.10
2022-08-17T00:22:33.214Z,2.88
2022-08-17T00:26:10.387Z,2.53
2022-08-17T00:30:12.825Z,3.00
2022-08-17T00:34:14.349Z,2.45
2022-08-17T00:38:15.953Z,2.22
2022-08-17T00:42:18.910Z,2.97
2022-08-17T00:46:28.367Z,2.60
2022-08-17T00:50:29.866Z,2.30
2022-08-17T00:54:41.838Z,2.40
2022-08-17T00:58:44.268Z,2.75
2022-08-17T01:02:47.923Z,2.83
2022-08-17T01:06:50.620Z,2.53
2022-08-17T01:10:58.954Z,2.42
2022-08-17T01:15:05.230Z,2.10
2022-08-17T01:19:14.236Z,3.10
2022-08-17T01:27:23.226Z,2.83
2022-08-17T01:31:30.811Z,3.28
2022-08-17T01:35:32.292Z,2.85
2022-08-17T01:39:38.106Z,3.28
2022-08-17T01:43:45.725Z,2.65
2022-08-17T01:47:47.177Z,2.70
2022-08-17T01:51:48.913Z,3.00
2022-08-17T01:55:55.409Z,2.83
2022-08-17T01:59:56.869Z,2.35
2022-08-17T02:04:00.742Z,2.97
2022-08-17T02:08:04.092Z,2.55
2022-08-17T02:12:37.603Z,2.72
2022-08-17T02:16:29.460Z,3.42
2022-08-17T02:20:42.395Z,2.97
2022-08-17T02:25:00.929Z,3.30
2022-08-17T02:29:04.277Z,3.13
2022-08-17T02:33:09.409Z,3.22
2022-08-17T02:37:11.036Z,3.13
2022-08-17T02:41:13.273Z,2.95
2022-08-17T02:45:22.828Z,3.03
2022-08-17T02:49:24.312Z,3.55
2022-08-17T02:53:26.061Z,2.45
2022-08-17T02:57:27.587Z,3.60
2022-08-17T03:01:29.146Z,3.00
2022-08-17T03:05:32.968Z,2.67
2022-08-17T03:09:34.447Z,3.08
2022-08-17T03:13:35.995Z,3.25
2022-08-17T03:17:37.565Z,3.22
2022-08-17T03:21:39.089Z,3.83
2022-08-17T03:25:43.492Z,3.60
2022-08-17T03:29:45.751Z,3.30
2022-08-17T03:33:47.625Z,3.00
2022-08-17T03:38:00.000Z,3.15
2022-08-17T03:42:09.025Z,2.80
2022-08-17T03:46:48.926Z,3.53
2022-08-17T03:51:14.532Z,4.07
2022-08-17T03:55:35.945Z,3.25
2022-08-17T03:59:38.757Z,4.00
2022-08-17T04:03:40.701Z,3.63
2022-08-17T04:07:42.192Z,4.07
2022-08-17T04:11:43.737Z,3.80
2022-08-17T04:15:49.003Z,3.75
2022-08-17T04:19:50.506Z,4.18
2022-08-17T04:23:52.328Z,3.72
2022-08-17T04:27:54.685Z,3.65
2022-08-17T04:31:56.137Z,3.60
2022-08-17T04:36:02.662Z,4.15
2022-08-17T04:40:27.135Z,3.60
2022-08-17T04:44:37.457Z,3.88
2022-08-17T04:48:42.836Z,3.55
2022-08-17T04:52:47.158Z,3.67
2022-08-17T04:56:49.623Z,4.45
2022-08-17T05:00:51.462Z,4.00
2022-08-17T05:04:53.112Z,3.85
2022-08-17T05:08:59.056Z,4.53
2022-08-17T05:13:10.036Z,4.15
2022-08-17T05:17:11.978Z,4.32
2022-08-17T05:21:14.188Z,4.18
2022-08-17T05:25:18.848Z,4.65
2022-08-17T05:29:35.222Z,4.18
2022-08-17T05:33:44.394Z,4.82
2022-08-17T05:37:47.751Z,4.45
2022-08-17T05:41:49.258Z,4.88
2022-08-17T05:46:06.219Z,4.30
2022-08-17T05:50:09.823Z,4.35
2022-08-17T05:54:24.719Z,4.80
2022-08-17T05:58:42.002Z,5.07
2022-08-17T06:02:58.184Z,4.60
2022-08-17T06:07:14.485Z,5.18
2022-08-17T06:11:35.268Z,5.25
2022-08-17T06:15:50.457Z,6.30
2022-08-17T06:20:00.208Z,5.68
2022-08-17T06:24:22.647Z,6.07
2022-08-17T06:28:37.537Z,5.45
2022-08-17T06:32:42.756Z,6.43
2022-08-17T06:37:09.215Z,7.25
2022-08-17T06:41:38.094Z,5.80
2022-08-17T06:45:49.326Z,6.32
2022-08-17T06:50:02.919Z,6.85
2022-08-17T06:54:50.875Z,7.28
2022-08-17T06:58:58.565Z,7.13
2022-08-17T07:03:09.603Z,7.20
2022-08-17T07:07:30.860Z,7.18
2022-08-17T07:11:37.585Z,7.95
2022-08-17T07:15:42.934Z,7.53
2022-08-17T07:19:47.376Z,7.20
2022-08-17T07:24:00.793Z,7.47
2022-08-17T07:28:07.118Z,7.47
2022-08-17T07:32:11.033Z,6.57
2022-08-17T07:36:30.033Z,6.70
2022-08-17T07:40:38.547Z,6.32
2022-08-17T07:44:53.798Z,7.13
2022-08-17T07:48:59.270Z,6.65
2022-08-17T07:53:19.148Z,7.05
2022-08-17T07:57:25.399Z,5.75
2022-08-17T08:01:39.697Z,5.30
2022-08-17T08:05:53.149Z,5.50
2022-08-17T08:10:11.775Z,5.78
2022-08-17T08:14:30.056Z,4.83
2022-08-17T08:18:54.241Z,4.70
2022-08-17T08:23:25.906Z,5.90
2022-08-17T08:27:43.993Z,5.43
2022-08-17T08:31:51.381Z,5.20
2022-08-17T08:36:06.985Z,4.68
2022-08-17T08:40:34.508Z,5.45
2022-08-17T08:44:59.958Z,5.85
2022-08-17T08:50:01.270Z,6.38
2022-08-17T08:54:05.900Z,4.90
2022-08-17T08:58:31.466Z,4.13
2022-08-17T09:02:54.203Z,4.60
2022-08-17T09:07:03.084Z,4.55
2022-08-17T09:11:30.896Z,5.00
2022-08-17T09:15:44.944Z,5.25
2022-08-17T09:19:53.038Z,5.03
2022-08-17T09:24:14.057Z,4.25
2022-08-17T09:28:36.468Z,5.43
2022-08-17T09:32:41.610Z,4.95
2022-08-17T09:37:02.495Z,5.28
2022-08-17T09:41:22.432Z,5.00
2022-08-17T09:45:31.309Z,4.90
2022-08-17T09:49:53.143Z,4.97
2022-08-17T09:54:05.182Z,4.75
2022-08-17T09:58:41.280Z,4.93
2022-08-17T10:02:54.827Z,4.55
2022-08-17T10:07:13.749Z,5.65
2022-08-17T10:11:24.636Z,5.25
2022-08-17T10:15:51.706Z,5.22
2022-08-17T10:20:23.575Z,5.43
2022-08-17T10:25:02.104Z,4.97
2022-08-17T10:29:20.086Z,5.18
2022-08-17T10:33:27.914Z,4.85
2022-08-17T10:37:37.079Z,5.50
2022-08-17T10:46:10.624Z,4.85
2022-08-17T10:54:50.812Z,4.10
2022-08-17T11:02:57.474Z,4.53
2022-08-17T11:07:12.537Z,4.55
2022-08-17T11:11:36.068Z,5.18
2022-08-17T11:15:52.072Z,3.72
2022-08-17T11:20:34.698Z,4.50
2022-08-17T11:24:40.401Z,4.65
2022-08-17T11:28:52.900Z,4.25
2022-08-17T11:32:56.328Z,4.97
2022-08-17T11:37:02.000Z,5.30
2022-08-17T11:41:38.631Z,4.35
2022-08-17T11:45:52.496Z,5.00
2022-08-17T11:50:20.898Z,4.07
2022-08-17T11:54:33.274Z,4.38
2022-08-17T11:58:40.992Z,4.30
2022-08-17T12:02:48.200Z,4.05
2022-08-17T12:07:13.120Z,4.38
2022-08-17T12:11:55.601Z,4.05
2022-08-17T12:15:57.826Z,3.72
2022-08-17T12:20:26.097Z,3.38
2022-08-17T12:24:47.885Z,4.93
2022-08-17T12:28:57.383Z,3.83
2022-08-17T12:33:01.427Z,4.40
2022-08-17T12:37:15.105Z,4.75
2022-08-17T12:41:38.401Z,4.50
2022-08-17T12:45:39.970Z,4.22
2022-08-17T12:49:42.880Z,3.42
2022-08-17T12:53:52.832Z,4.43
2022-08-17T12:57:58.410Z,4.05
2022-08-17T13:02:02.549Z,3.45
2022-08-17T13:06:09.511Z,3.92
2022-08-17T13:10:32.861Z,3.53
2022-08-17T13:14:35.269Z,4.18
2022-08-17T13:18:38.841Z,4.10
2022-08-17T13:22:40.755Z,3.85
2022-08-17T13:26:57.487Z,3.53
2022-08-17T13:31:33.565Z,4.30
2022-08-17T13:35:50.123Z,3.40
2022-08-17T13:40:03.972Z,4.18
2022-08-17T13:44:32.169Z,3.92
2022-08-17T13:48:33.940Z,3.92
2022-08-17T13:52:38.901Z,3.63
2022-08-17T13:56:54.611Z,3.95
2022-08-17T14:00:56.460Z,4.72
2022-08-17T14:04:58.527Z,3.67
2022-08-17T14:09:04.780Z,3.60
2022-08-17T14:13:07.494Z,3.58
2022-08-17T14:17:10.244Z,4.18
2022-08-17T14:21:12.139Z,3.20
2022-08-17T14:25:18.618Z,3.97
2022-08-17T14:29:22.521Z,4.85
2022-08-17T14:33:24.705Z,4.13
2022-08-17T14:37:28.832Z,4.43
2022-08-17T14:41:30.460Z,3.72
2022-08-17T14:45:33.526Z,4.28
2022-08-17T14:49:35.166Z,4.28
2022-08-17T14:53:36.645Z,3.92
2022-08-17T14:57:39.861Z,5.10
2022-08-17T15:01:41.420Z,3.67
2022-08-17T15:05:45.397Z,4.43
2022-08-17T15:09:47.097Z,3.85
2022-08-17T15:13:52.333Z,3.15
2022-08-17T15:17:54.840Z,3.50
2022-08-17T15:21:56.388Z,4.03
2022-08-17T15:25:57.853Z,3.58
2022-08-17T15:29:59.304Z,3.75
2022-08-17T15:34:00.914Z,3.50
2022-08-17T15:38:11.149Z,4.45
2022-08-17T15:42:13.563Z,3.70
2022-08-17T15:46:20.937Z,3.63
2022-08-17T15:50:22.606Z,3.83
2022-08-17T15:54:24.074Z,3.63
2022-08-17T15:58:29.934Z,3.72
2022-08-17T16:03:45.010Z,3.42
2022-08-17T16:06:57.323Z,3.53
2022-08-17T16:10:59.499Z,3.50
2022-08-17T16:15:02.417Z,4.10
2022-08-17T16:19:04.009Z,4.55
2022-08-17T16:23:05.515Z,3.25
2022-08-17T16:27:12.380Z,3.55
2022-08-17T16:31:14.525Z,4.10
2022-08-17T16:35:18.064Z,4.03
2022-08-17T16:39:19.565Z,4.18
2022-08-17T16:43:21.045Z,3.83
2022-08-17T16:47:22.555Z,4.07
2022-08-17T16:51:24.388Z,3.78
2022-08-17T16:55:26.259Z,4.22
2022-08-17T16:59:31.041Z,4.10
2022-08-17T17:03:43.926Z,3.47
2022-08-17T17:07:55.427Z,4.60
2022-08-17T17:12:00.703Z,3.88
2022-08-17T17:16:19.258Z,4.10
2022-08-17T17:20:28.882Z,3.80
2022-08-17T17:24:40.291Z,4.93
2022-08-17T17:29:03.675Z,4.47
2022-08-17T17:33:21.176Z,4.13
2022-08-17T17:37:28.901Z,4.47
2022-08-17T17:41:41.235Z,4.18
2022-08-17T17:45:50.192Z,3.85
2022-08-17T17:54:01.292Z,3.88
2022-08-17T17:58:36.181Z,4.18
2022-08-17T18:02:52.599Z,4.03
2022-08-17T18:07:15.613Z,3.70
2022-08-17T18:11:48.675Z,3.28
2022-08-17T18:15:54.265Z,2.63
2022-08-17T18:19:56.122Z,3.38
2022-08-17T18:24:01.170Z,3.47
2022-08-17T18:28:02.982Z,3.03
2022-08-17T18:32:26.809Z,3.33
2022-08-17T18:36:33.140Z,3.05
2022-08-17T18:40:37.440Z,2.83
2022-08-17T18:44:38.867Z,3.10
2022-08-17T18:49:03.775Z,2.63
2022-08-17T18:53:30.408Z,2.78
2022-08-17T18:57:40.017Z,3.53
2022-08-17T19:01:52.705Z,3.00
2022-08-17T19:06:16.605Z,2.67
2022-08-17T19:10:23.327Z,3.00
2022-08-17T19:14:28.505Z,2.88
2022-08-17T19:18:36.051Z,3.08
2022-08-17T19:22:55.822Z,3.00
2022-08-17T19:27:25.910Z,3.53
2022-08-17T19:31:36.417Z,3.53
2022-08-17T19:35:55.061Z,3.00
2022-08-17T19:40:05.739Z,3.30
2022-08-17T19:44:29.461Z,2.97
2022-08-17T19:48:51.343Z,2.42
2022-08-17T19:53:12.361Z,2.88
2022-08-17T19:57:40.601Z,2.67
2022-08-17T20:02:03.875Z,3.17
2022-08-17T20:06:15.059Z,3.13
2022-08-17T20:10:34.205Z,3.47
2022-08-17T20:14:55.865Z,3.45
2022-08-17T20:19:05.927Z,2.55
2022-08-17T20:23:23.447Z,3.80
2022-08-17T20:27:31.919Z,3.33
2022-08-17T20:32:04.488Z,2.72
2022-08-17T20:36:17.259Z,2.78
2022-08-17T20:40:29.280Z,3.20
2022-08-17T20:44:33.171Z,3.40
2022-08-17T20:48:40.023Z,2.72
2022-08-17T20:52:48.171Z,3.22
2022-08-17T20:56:52.502Z,3.92
2022-08-17T21:00:57.167Z,3.30
2022-08-17T21:05:04.033Z,3.10
2022-08-17T21:09:29.834Z,3.40
2022-08-17T21:14:09.632Z,3.25
2022-08-17T21:18:18.311Z,3.13
2022-08-17T21:22:31.657Z,3.13
2022-08-17T21:26:50.762Z,3.58
2022-08-17T21:35:06.510Z,3.00
2022-08-17T21:39:11.656Z,3.42
2022-08-17T21:43:43.596Z,3.90
2022-08-17T21:48:07.603Z,3.45
2022-08-17T21:52:17.609Z,3.50
2022-08-17T21:56:36.321Z,3.30
2022-08-17T22:00:37.865Z,3.70
2022-08-17T22:04:41.605Z,3.25
2022-08-17T22:08:57.500Z,3.75
2022-08-17T22:13:19.680Z,3.47
2022-08-17T22:17:23.076Z,3.33
2022-08-17T22:21:25.528Z,3.80
2022-08-17T22:25:28.228Z,3.60
2022-08-17T22:29:53.349Z,3.45
2022-08-17T22:34:01.284Z,3.17
2022-08-17T22:38:17.989Z,3.45
2022-08-17T22:42:19.476Z,3.08
2022-08-17T22:46:24.029Z,3.03
2022-08-17T22:50:29.055Z,3.30
2022-08-17T22:54:49.646Z,3.47
2022-08-17T22:59:13.018Z,3.08
2022-08-17T23:03:24.438Z,3.33
2022-08-17T23:07:25.960Z,3.53
2022-08-17T23:11:36.645Z,3.50
2022-08-17T23:15:51.038Z,3.40
2022-08-17T23:19:53.039Z,3.95
2022-08-17T23:23:55.109Z,4.10
2022-08-17T23:28:01.348Z,4.07
2022-08-17T23:32:04.760Z,3.88
2022-08-17T23:36:09.619Z,3.90
2022-08-17T23:40:11.607Z,3.55
2022-08-17T23:44:14.811Z,4.15
2022-08-17T23:48:18.169Z,4.80
2022-08-17T23:52:37.718Z,4.03
2022-08-17T23:56:46.657Z,4.00
